createdAt,value
2023-02-22T00:00:45.608Z,9.30
2023-02-22T00:03:17.892Z,8.50
2023-02-22T00:08:14.650Z,9.10
2023-02-22T00:10:40.825Z,6.30
2023-02-22T00:13:09.792Z,6.90
2023-02-22T00:15:36.392Z,7.80
2023-02-22T00:18:04.349Z,5.30
2023-02-22T00:20:30.456Z,6.00
2023-02-22T00:22:56.562Z,5.80
2023-02-22T00:25:24.352Z,6.50
2023-02-22T00:27:52.264Z,6.30
2023-02-22T00:30:26.141Z,5.20
2023-02-22T00:33:01.185Z,5.50
2023-02-22T00:35:29.842Z,4.30
2023-02-22T00:38:01.488Z,4.20
2023-02-22T00:40:30.851Z,3.60
2023-02-22T00:42:58.464Z,4.30
2023-02-22T00:45:26.486Z,5.20
2023-02-22T00:47:53.972Z,5.40
2023-02-22T00:50:21.053Z,5.50
2023-02-22T00:52:48.045Z,4.40
2023-02-22T00:55:25.861Z,4.90
2023-02-22T00:57:52.820Z,7.60
2023-02-22T01:00:32.804Z,6.50
2023-02-22T01:02:59.464Z,5.00
2023-02-22T01:05:28.896Z,6.50
2023-02-22T01:07:56.617Z,5.70
2023-02-22T01:10:24.897Z,7.20
2023-02-22T01:12:52.132Z,7.30
2023-02-22T01:15:23.388Z,8.70
2023-02-22T01:17:52.918Z,7.40
2023-02-22T01:20:22.148Z,7.90
2023-02-22T01:22:50.257Z,7.10
2023-02-22T01:25:19.274Z,6.50
2023-02-22T01:27:45.501Z,7.40
2023-02-22T01:30:14.422Z,7.40
2023-02-22T01:32:42.461Z,8.30
2023-02-22T01:35:13.117Z,7.90
2023-02-22T01:37:40.442Z,8.30
2023-02-22T01:40:09.483Z,10.00
2023-02-22T01:42:36.482Z,7.50
2023-02-22T01:45:30.371Z,6.90
2023-02-22T01:48:01.117Z,8.40
2023-02-22T01:50:28.561Z,10.00
2023-02-22T01:52:55.260Z,10.80
2023-02-22T01:55:21.683Z,9.10
2023-02-22T01:57:48.944Z,8.20
2023-02-22T02:00:20.496Z,9.30
2023-02-22T02:02:52.130Z,8.00
2023-02-22T02:05:24.138Z,8.40
2023-02-22T02:07:50.377Z,7.10
2023-02-22T02:10:20.826Z,8.60
2023-02-22T02:12:49.936Z,8.00
2023-02-22T02:15:34.035Z,8.00
2023-02-22T02:18:04.171Z,8.90
2023-02-22T02:20:30.260Z,8.30
2023-02-22T02:23:00.261Z,10.10
2023-02-22T02:25:47.647Z,9.40
2023-02-22T02:28:38.768Z,7.60
2023-02-22T02:31:31.434Z,10.10
2023-02-22T02:36:59.071Z,9.90
2023-02-22T02:39:40.213Z,11.90
2023-02-22T02:42:11.971Z,13.60
2023-02-22T02:44:47.109Z,10.00
2023-02-22T02:47:23.320Z,11.10
2023-02-22T02:50:04.088Z,12.80
2023-02-22T02:52:33.712Z,11.30
2023-02-22T02:55:01.824Z,12.50
2023-02-22T02:57:27.963Z,12.90
2023-02-22T02:59:54.020Z,11.60
2023-02-22T03:02:35.710Z,12.30
2023-02-22T03:05:13.742Z,10.30
2023-02-22T03:07:54.849Z,11.00
2023-02-22T03:10:41.879Z,11.10
2023-02-22T03:13:38.811Z,11.50
2023-02-22T03:16:11.491Z,9.80
2023-02-22T03:19:04.109Z,9.50
2023-02-22T03:21:32.959Z,11.40
2023-02-22T03:24:13.762Z,9.70
2023-02-22T03:26:53.447Z,11.30
2023-02-22T03:29:23.263Z,9.30
2023-02-22T03:32:00.588Z,9.40
2023-02-22T03:34:40.951Z,10.30
2023-02-22T03:37:26.305Z,9.70
2023-02-22T03:39:54.959Z,10.20
2023-02-22T03:42:25.666Z,9.30
2023-02-22T03:44:54.521Z,9.50
2023-02-22T03:47:27.990Z,9.60
2023-02-22T03:50:06.253Z,9.50
2023-02-22T03:52:34.966Z,10.30
2023-02-22T03:55:03.967Z,10.50
2023-02-22T03:57:34.856Z,10.40
2023-02-22T04:00:06.717Z,11.00
2023-02-22T04:02:42.121Z,9.30
2023-02-22T04:05:10.207Z,12.40
2023-02-22T04:07:36.445Z,11.10
2023-02-22T04:10:03.208Z,10.10
2023-02-22T04:12:30.201Z,10.60
2023-02-22T04:15:00.185Z,10.50
2023-02-22T04:17:27.032Z,10.70
2023-02-22T04:19:53.416Z,12.40
2023-02-22T04:22:21.508Z,10.10
2023-02-22T04:24:48.421Z,12.80
2023-02-22T04:27:16.464Z,14.20
2023-02-22T04:29:42.546Z,11.30
2023-02-22T04:32:09.559Z,13.00
2023-02-22T04:34:36.049Z,11.20
2023-02-22T04:37:02.977Z,14.50
2023-02-22T04:39:29.100Z,15.00
2023-02-22T04:41:55.589Z,14.30
2023-02-22T04:44:21.676Z,13.60
2023-02-22T04:46:47.909Z,12.60
2023-02-22T04:49:16.004Z,13.20
2023-02-22T04:51:43.369Z,13.10
2023-02-22T04:54:12.990Z,14.60
2023-02-22T04:56:44.082Z,13.40
2023-02-22T04:59:10.626Z,13.10
2023-02-22T05:01:38.669Z,12.40
2023-02-22T05:04:06.991Z,11.80
2023-02-22T05:06:33.537Z,11.40
2023-02-22T05:08:59.729Z,10.00
2023-02-22T05:11:25.865Z,10.30
2023-02-22T05:13:52.112Z,9.80
2023-02-22T05:16:18.776Z,10.50
2023-02-22T05:18:44.980Z,10.70
2023-02-22T05:21:12.994Z,10.30
2023-02-22T05:23:39.496Z,10.60
2023-02-22T05:26:05.935Z,11.30
2023-02-22T05:28:32.453Z,13.10
2023-02-22T05:30:58.591Z,12.90
2023-02-22T05:33:24.651Z,13.20
2023-02-22T05:35:50.797Z,13.60
2023-02-22T05:38:17.027Z,14.90
2023-02-22T05:40:43.188Z,17.40
2023-02-22T05:43:09.744Z,15.50
2023-02-22T05:45:36.069Z,15.40
2023-02-22T05:48:02.531Z,17.90
2023-02-22T05:50:28.987Z,15.20
2023-02-22T05:52:55.100Z,16.60
2023-02-22T05:55:23.347Z,15.90
2023-02-22T05:57:50.902Z,16.80
2023-02-22T06:00:26.001Z,14.50
2023-02-22T06:02:56.695Z,14.80
2023-02-22T06:05:22.935Z,16.50
2023-02-22T06:07:49.135Z,15.70
2023-02-22T06:10:15.534Z,13.70
2023-02-22T06:12:41.673Z,14.10
2023-02-22T06:15:08.088Z,13.60
2023-02-22T06:17:34.228Z,17.40
2023-02-22T06:20:00.334Z,17.90
2023-02-22T06:22:26.598Z,16.10
2023-02-22T06:24:54.938Z,13.80
2023-02-22T06:27:21.265Z,13.60
2023-02-22T06:29:47.369Z,15.30
2023-02-22T06:32:13.778Z,14.10
2023-02-22T06:34:43.281Z,11.30
2023-02-22T06:37:09.422Z,13.20
2023-02-22T06:39:35.633Z,12.40
2023-02-22T06:42:01.891Z,16.20
2023-02-22T06:44:28.029Z,13.90
2023-02-22T06:46:54.141Z,13.10
2023-02-22T06:49:20.248Z,13.70
2023-02-22T06:51:47.000Z,12.30
2023-02-22T06:54:13.982Z,14.90
2023-02-22T06:56:40.142Z,14.80
2023-02-22T06:59:06.304Z,13.90
2023-02-22T07:01:32.449Z,13.60
2023-02-22T07:03:58.588Z,12.10
2023-02-22T07:06:24.735Z,11.20
2023-02-22T07:08:50.925Z,10.50
2023-02-22T07:11:17.479Z,9.70
2023-02-22T07:13:43.800Z,9.80
2023-02-22T07:16:10.420Z,8.80
2023-02-22T07:18:36.577Z,9.10
2023-02-22T07:21:02.966Z,9.50
2023-02-22T07:23:29.033Z,10.30
2023-02-22T07:25:55.500Z,11.90
2023-02-22T07:28:21.728Z,11.50
2023-02-22T07:30:47.998Z,10.80
2023-02-22T07:33:14.180Z,9.80
2023-02-22T07:35:48.029Z,10.50
2023-02-22T07:38:16.558Z,10.40
2023-02-22T07:40:43.155Z,10.90
2023-02-22T07:43:18.066Z,11.70
2023-02-22T07:45:45.625Z,9.20
2023-02-22T07:48:12.958Z,7.80
2023-02-22T07:50:39.481Z,7.80
2023-02-22T07:53:10.424Z,8.30
2023-02-22T07:55:40.485Z,9.50
2023-02-22T07:58:08.337Z,8.40
2023-02-22T08:00:39.219Z,8.00
2023-02-22T08:03:08.500Z,9.20
2023-02-22T08:05:36.658Z,7.70
2023-02-22T08:08:03.804Z,8.20
2023-02-22T08:10:30.321Z,9.10
2023-02-22T08:12:56.997Z,8.30
2023-02-22T08:15:31.286Z,7.60
2023-02-22T08:17:58.798Z,8.40
2023-02-22T08:20:25.338Z,7.80
2023-02-22T08:22:51.916Z,7.60
2023-02-22T08:25:20.630Z,9.40
2023-02-22T08:27:47.723Z,7.90
2023-02-22T08:30:22.019Z,10.90
2023-02-22T08:32:49.664Z,10.70
2023-02-22T08:35:17.421Z,9.10
2023-02-22T08:37:50.215Z,9.00
2023-02-22T08:40:20.731Z,9.00
2023-02-22T08:42:47.185Z,8.30
2023-02-22T08:45:13.787Z,9.30
2023-02-22T08:47:40.267Z,8.30
2023-02-22T08:50:07.956Z,9.00
2023-02-22T08:52:34.529Z,8.20
2023-02-22T08:55:01.268Z,8.60
2023-02-22T08:57:27.414Z,7.90
2023-02-22T08:59:53.678Z,7.00
2023-02-22T09:02:21.480Z,6.80
2023-02-22T09:04:48.528Z,5.80
2023-02-22T09:07:15.265Z,5.80
2023-02-22T09:09:44.708Z,4.60
2023-02-22T09:12:11.262Z,4.00
2023-02-22T09:14:37.399Z,4.50
2023-02-22T09:17:05.850Z,3.90
2023-02-22T09:19:32.053Z,3.40
2023-02-22T09:21:59.570Z,3.60
2023-02-22T09:24:26.416Z,2.70
2023-02-22T09:26:55.754Z,2.40
2023-02-22T09:29:24.398Z,3.00
2023-02-22T09:31:53.185Z,2.90
2023-02-22T09:34:22.111Z,3.10
2023-02-22T09:36:49.597Z,2.50
2023-02-22T09:39:17.355Z,2.90
2023-02-22T09:42:14.526Z,2.50
2023-02-22T09:44:49.301Z,2.80
2023-02-22T09:47:19.279Z,2.50
2023-02-22T09:49:56.819Z,2.80
2023-02-22T09:52:40.809Z,2.20
2023-02-22T09:55:31.201Z,1.80
2023-02-22T09:58:02.235Z,1.90
2023-02-22T10:00:37.252Z,1.40
2023-02-22T10:03:24.185Z,1.90
2023-02-22T10:05:58.799Z,2.20
2023-02-22T10:08:31.158Z,3.00
2023-02-22T10:11:09.730Z,2.30
2023-02-22T10:13:44.569Z,2.20
2023-02-22T10:16:36.377Z,1.90
2023-02-22T10:22:04.914Z,1.20
2023-02-22T10:25:12.180Z,1.30
2023-02-22T10:28:09.315Z,1.70
2023-02-22T10:30:41.364Z,1.50
2023-02-22T10:33:16.779Z,1.50
2023-02-22T10:35:46.867Z,1.70
2023-02-22T10:38:20.339Z,1.40
2023-02-22T10:40:54.250Z,1.30
2023-02-22T10:43:21.800Z,1.40
2023-02-22T10:45:50.806Z,2.70
2023-02-22T10:48:20.455Z,1.60
2023-02-22T10:50:47.300Z,1.90
2023-02-22T10:53:17.325Z,2.50
2023-02-22T10:56:09.166Z,1.70
2023-02-22T10:58:57.091Z,1.70
2023-02-22T11:01:25.891Z,2.00
2023-02-22T11:04:06.899Z,1.90
2023-02-22T11:06:34.343Z,1.60
2023-02-22T11:09:13.941Z,2.20
2023-02-22T11:11:43.271Z,1.60
2023-02-22T11:14:10.259Z,2.00
2023-02-22T11:16:45.449Z,1.30
2023-02-22T11:19:23.817Z,1.90
2023-02-22T11:21:56.536Z,1.30
2023-02-22T11:24:27.410Z,1.00
2023-02-22T11:27:05.315Z,1.00
2023-02-22T11:29:35.771Z,0.90
2023-02-22T11:32:22.697Z,1.10
2023-02-22T11:35:00.294Z,1.10
2023-02-22T11:37:37.385Z,1.10
2023-02-22T11:40:21.529Z,1.10
2023-02-22T11:43:15.853Z,0.90
2023-02-22T11:46:09.237Z,0.80
2023-02-22T11:48:39.031Z,0.90
2023-02-22T11:51:16.229Z,0.90
2023-02-22T11:54:10.326Z,1.30
2023-02-22T11:56:51.694Z,2.30
2023-02-22T11:59:36.191Z,1.00
2023-02-22T12:02:32.322Z,1.10
2023-02-22T12:05:04.479Z,0.80
2023-02-22T12:07:41.660Z,0.90
2023-02-22T12:10:17.772Z,0.70
2023-02-22T12:13:04.221Z,0.90
2023-02-22T12:15:47.492Z,0.60
2023-02-22T12:18:38.348Z,0.80
2023-02-22T12:21:16.099Z,0.70
2023-02-22T12:24:15.833Z,0.90
2023-02-22T12:26:50.122Z,0.90
2023-02-22T12:29:40.526Z,1.10
2023-02-22T12:32:34.272Z,0.90
2023-02-22T12:35:16.375Z,0.80
2023-02-22T12:40:38.993Z,0.90
2023-02-22T12:43:10.273Z,0.90
2023-02-22T12:45:43.780Z,0.70
2023-02-22T12:48:17.699Z,0.80
2023-02-22T12:50:47.660Z,0.90
2023-02-22T12:53:25.120Z,1.00
2023-02-22T12:56:03.736Z,1.10
2023-02-22T12:58:39.323Z,1.00
2023-02-22T13:01:21.341Z,0.80
2023-02-22T13:06:34.572Z,1.20
2023-02-22T13:09:15.595Z,0.90
2023-02-22T13:11:51.925Z,1.30
2023-02-22T13:14:31.082Z,1.20
2023-02-22T13:17:03.572Z,1.20
2023-02-22T13:20:05.727Z,0.90
2023-02-22T13:22:47.430Z,0.80
2023-02-22T13:25:23.552Z,1.50
2023-02-22T13:27:59.586Z,0.90
2023-02-22T13:30:36.540Z,1.00
2023-02-22T13:33:31.242Z,0.90
2023-02-22T13:36:20.495Z,0.80
2023-02-22T13:39:05.637Z,1.10
2023-02-22T13:41:41.022Z,1.00
2023-02-22T13:44:16.207Z,2.50
2023-02-22T13:47:06.462Z,1.40
2023-02-22T13:49:35.284Z,2.00
2023-02-22T13:52:11.708Z,1.60
2023-02-22T13:54:45.664Z,1.40
2023-02-22T13:57:24.682Z,1.50
2023-02-22T14:00:15.378Z,1.20
2023-02-22T14:03:14.939Z,1.30
2023-02-22T14:05:41.761Z,2.20
2023-02-22T14:08:28.340Z,1.20
2023-02-22T14:11:01.212Z,1.50
2023-02-22T14:13:29.145Z,2.00
2023-02-22T14:16:01.806Z,2.20
2023-02-22T14:18:42.270Z,1.30
2023-02-22T14:21:16.301Z,1.50
2023-02-22T14:23:50.927Z,1.20
2023-02-22T14:26:26.191Z,1.00
2023-02-22T14:28:57.557Z,1.30
2023-02-22T14:31:36.841Z,1.00
2023-02-22T14:34:20.858Z,1.40
2023-02-22T14:36:55.046Z,1.30
2023-02-22T14:39:33.165Z,1.40
2023-02-22T14:42:10.007Z,1.30
2023-02-22T14:45:16.489Z,1.50
2023-02-22T14:47:59.820Z,0.90
2023-02-22T14:51:05.929Z,1.00
2023-02-22T14:53:47.545Z,1.80
2023-02-22T14:57:11.391Z,1.30
2023-02-22T14:59:58.804Z,1.40
2023-02-22T15:02:25.421Z,1.40
2023-02-22T15:04:57.415Z,1.70
2023-02-22T15:10:17.207Z,1.80
2023-02-22T15:13:07.960Z,1.70
2023-02-22T15:15:44.859Z,1.70
2023-02-22T15:18:26.462Z,1.70
2023-02-22T15:20:57.587Z,1.70
2023-02-22T15:23:29.679Z,2.10
2023-02-22T15:25:56.368Z,2.00
2023-02-22T15:28:26.889Z,2.10
2023-02-22T15:31:17.159Z,2.10
2023-02-22T15:33:43.601Z,1.90
2023-02-22T15:36:16.277Z,2.60
2023-02-22T15:38:48.775Z,2.60
2023-02-22T15:41:28.437Z,2.40
2023-02-22T15:44:17.835Z,2.60
2023-02-22T15:46:49.543Z,2.40
2023-02-22T15:49:15.578Z,2.30
2023-02-22T15:51:48.463Z,2.60
2023-02-22T15:54:26.575Z,3.20
2023-02-22T15:56:56.839Z,3.00
2023-02-22T15:59:29.764Z,3.40
2023-02-22T16:01:57.917Z,3.40
2023-02-22T16:04:29.196Z,3.00
2023-02-22T16:07:07.410Z,3.40
2023-02-22T16:09:33.900Z,2.90
2023-02-22T16:12:23.989Z,3.40
2023-02-22T16:14:51.807Z,3.20
2023-02-22T16:17:24.132Z,2.70
2023-02-22T16:19:52.042Z,2.60
2023-02-22T16:22:39.479Z,2.80
2023-02-22T16:25:17.477Z,3.00
2023-02-22T16:28:22.274Z,3.20
2023-02-22T16:30:57.047Z,3.70
2023-02-22T16:33:23.330Z,3.90
2023-02-22T16:35:52.435Z,4.10
2023-02-22T16:38:19.145Z,4.50
2023-02-22T16:40:49.857Z,4.10
2023-02-22T16:43:23.870Z,5.20
2023-02-22T16:45:52.256Z,5.00
2023-02-22T16:48:24.175Z,4.50
2023-02-22T16:50:53.262Z,5.40
2023-02-22T16:53:22.061Z,5.60
2023-02-22T16:55:53.101Z,9.30
2023-02-22T16:58:19.303Z,10.20
2023-02-22T17:00:45.567Z,12.60
2023-02-22T17:03:15.954Z,15.00
2023-02-22T17:05:43.283Z,19.80
2023-02-22T17:08:09.782Z,20.70
2023-02-22T17:10:36.031Z,19.60
2023-02-22T17:13:22.187Z,19.50
2023-02-22T17:15:49.989Z,19.50
2023-02-22T17:18:22.085Z,18.00
2023-02-22T17:20:50.115Z,17.90
2023-02-22T17:23:16.569Z,17.70
2023-02-22T17:25:45.477Z,19.10
2023-02-22T17:28:12.384Z,17.50
2023-02-22T17:30:38.795Z,17.70
2023-02-22T17:33:07.610Z,19.20
2023-02-22T17:35:37.215Z,18.50
2023-02-22T17:38:05.482Z,18.70
2023-02-22T17:40:34.214Z,16.70
2023-02-22T17:43:01.214Z,16.40
2023-02-22T17:45:27.982Z,15.00
2023-02-22T17:47:54.543Z,15.30
2023-02-22T17:50:21.926Z,15.30
2023-02-22T17:52:51.147Z,11.50
2023-02-22T17:55:20.254Z,13.10
2023-02-22T17:57:51.644Z,13.60
2023-02-22T18:00:32.351Z,12.20
2023-02-22T18:03:05.230Z,14.40
2023-02-22T18:05:34.842Z,13.80
2023-02-22T18:08:01.220Z,13.70
2023-02-22T18:10:27.441Z,13.20
2023-02-22T18:12:54.612Z,14.60
2023-02-22T18:15:21.090Z,16.10
2023-02-22T18:17:47.863Z,17.30
2023-02-22T18:20:19.673Z,16.80
2023-02-22T18:22:46.722Z,13.50
2023-02-22T18:25:15.110Z,13.50
2023-02-22T18:27:48.114Z,12.50
2023-02-22T18:30:17.684Z,16.70
2023-02-22T18:32:45.499Z,33.50
2023-02-22T18:35:12.603Z,27.30
2023-02-22T18:37:39.325Z,34.80
2023-02-22T18:40:09.946Z,26.10
2023-02-22T18:42:38.480Z,23.80
2023-02-22T18:45:06.712Z,24.60
2023-02-22T18:47:42.121Z,18.70
2023-02-22T18:50:10.296Z,16.70
2023-02-22T18:52:48.949Z,14.40
2023-02-22T18:55:19.343Z,15.70
2023-02-22T18:57:46.490Z,15.20
2023-02-22T19:00:18.552Z,16.30
2023-02-22T19:02:45.094Z,18.50
2023-02-22T19:05:12.660Z,15.80
2023-02-22T19:07:39.202Z,15.90
2023-02-22T19:10:06.548Z,19.40
2023-02-22T19:12:33.223Z,17.50
2023-02-22T19:15:00.097Z,21.60
2023-02-22T19:25:37.005Z,17.40
2023-02-22T19:28:03.715Z,15.10
2023-02-22T19:30:31.757Z,14.30
2023-02-22T19:32:57.930Z,14.30
2023-02-22T19:35:26.923Z,14.50
2023-02-22T19:37:56.053Z,18.70
2023-02-22T19:40:22.611Z,13.50
2023-02-22T19:42:53.981Z,14.90
2023-02-22T19:45:21.145Z,14.30
2023-02-22T19:47:48.104Z,12.70
2023-02-22T19:50:18.262Z,12.60
2023-02-22T19:52:44.844Z,14.00
2023-02-22T19:55:13.909Z,11.80
2023-02-22T19:57:42.615Z,12.70
2023-02-22T20:00:10.855Z,39.30
2023-02-22T20:02:41.315Z,38.10
2023-02-22T20:05:12.708Z,28.60
2023-02-22T20:07:39.016Z,19.80
2023-02-22T20:10:06.566Z,15.20
2023-02-22T20:12:32.873Z,17.20
2023-02-22T20:14:59.701Z,17.30
2023-02-22T20:17:28.732Z,15.40
2023-02-22T20:19:55.010Z,13.70
2023-02-22T20:22:21.856Z,15.10
2023-02-22T20:24:49.154Z,12.80
2023-02-22T20:27:15.946Z,15.10
2023-02-22T20:29:42.199Z,15.40
2023-02-22T20:32:14.275Z,22.20
2023-02-22T20:34:45.230Z,17.00
2023-02-22T20:37:11.634Z,19.40
2023-02-22T20:39:37.974Z,19.00
2023-02-22T20:42:06.176Z,21.30
2023-02-22T20:44:32.804Z,19.00
2023-02-22T20:46:59.163Z,21.50
2023-02-22T20:49:26.671Z,18.80
2023-02-22T20:51:53.166Z,20.80
2023-02-22T20:54:20.825Z,17.50
2023-02-22T20:56:47.719Z,17.20
2023-02-22T20:59:16.388Z,18.30
2023-02-22T21:01:43.149Z,17.10
2023-02-22T21:04:10.691Z,17.90
2023-02-22T21:06:38.840Z,17.60
2023-02-22T21:09:09.680Z,17.00
2023-02-22T21:11:35.931Z,16.00
2023-02-22T21:14:02.826Z,15.90
2023-02-22T21:16:31.520Z,25.80
2023-02-22T21:19:00.611Z,42.30
2023-02-22T21:21:28.159Z,26.50
2023-02-22T21:23:56.605Z,23.50
2023-02-22T21:26:29.025Z,13.80
2023-02-22T21:28:58.028Z,14.50
2023-02-22T21:31:25.184Z,14.90
2023-02-22T21:33:53.614Z,14.80
2023-02-22T21:36:24.330Z,15.80
2023-02-22T21:38:55.042Z,16.50
2023-02-22T21:41:23.761Z,14.90
2023-02-22T21:46:17.565Z,15.00
2023-02-22T21:48:47.784Z,14.20
2023-02-22T21:51:20.906Z,12.60
2023-02-22T21:53:52.519Z,12.80
2023-02-22T21:56:23.673Z,19.00
2023-02-22T21:58:58.604Z,19.50
2023-02-22T22:01:29.895Z,13.20
2023-02-22T22:03:59.134Z,16.40
2023-02-22T22:06:30.128Z,15.10
2023-02-22T22:08:59.132Z,15.40
2023-02-22T22:11:25.433Z,10.50
2023-02-22T22:13:56.966Z,14.20
2023-02-22T22:16:25.098Z,14.80
2023-02-22T22:18:51.463Z,14.00
2023-02-22T22:21:22.172Z,13.90
2023-02-22T22:23:50.066Z,13.80
2023-02-22T22:26:20.377Z,14.50
2023-02-22T22:28:49.370Z,14.60
2023-02-22T22:31:18.901Z,12.50
2023-02-22T22:33:46.340Z,14.90
2023-02-22T22:36:15.184Z,17.30
2023-02-22T22:38:42.571Z,30.40
2023-02-22T22:41:12.662Z,21.90
2023-02-22T22:43:41.037Z,17.30
2023-02-22T22:46:08.009Z,16.40
2023-02-22T22:48:38.452Z,14.60
2023-02-22T22:51:09.204Z,17.00
2023-02-22T22:53:41.399Z,15.50
2023-02-22T22:58:43.297Z,15.00
2023-02-22T23:01:17.301Z,13.80
2023-02-22T23:03:47.981Z,15.40
2023-02-22T23:06:15.891Z,16.00
2023-02-22T23:08:45.118Z,14.90
2023-02-22T23:11:12.183Z,14.80
2023-02-22T23:13:39.170Z,14.50
2023-02-22T23:16:12.390Z,16.20
2023-02-22T23:18:42.519Z,14.80
2023-02-22T23:21:10.053Z,13.80
2023-02-22T23:23:36.716Z,13.90
2023-02-22T23:26:10.881Z,13.60
2023-02-22T23:28:39.462Z,12.70
2023-02-22T23:31:10.436Z,13.50
2023-02-22T23:33:37.733Z,13.00
2023-02-22T23:36:07.539Z,14.30
2023-02-22T23:38:34.290Z,12.20
2023-02-22T23:41:02.299Z,12.40
2023-02-22T23:43:31.900Z,12.90
2023-02-22T23:46:03.267Z,13.10
2023-02-22T23:48:29.516Z,14.50
2023-02-22T23:50:58.595Z,13.20
2023-02-22T23:53:25.907Z,12.00
2023-02-22T23:55:52.001Z,13.10
2023-02-22T23:58:22.122Z,13.90
